Latest Weather Observations for Lucas Heights

IDN60801

Issued at 3:42 pm EST Wednesday 20 June 2018 (issued every 10 minutes, with the page automatically refreshed every 10 minutes)

About weather observations | Map of weather stations | Latest weather observations for NSW | Other Formats
Station Details ID: 066023 Name: LUCAS HEIGHTS AWS Lat: -34.05 Lon: 150.98 Height: 140.0 m
Data from the previous 72 hours. | See also: Recent months for locations in New South Wales
Date/Time
EST
Temp
°C
App
Temp
°C
Dew
Point
°C
Rel
Hum
%
Delta-T
°C
Wind Press
QNH
hPa
Press
MSL
hPa
Rain since
9am
mm
Dir  Spd
km/h
Gust
km/h
Spd
kts
Gust
kts
20/03:30pm 15.1 10.9 8.1 63 3.5 S 20 33 11 18 1026.7 - 0.0
20/03:15pm 15.2 10.7 8.4 64 3.5 SSE 22 33 12 18 1026.6 - 0.0
20/03:00pm 15.4 10.9 8.5 63 3.5 SSE 22 32 12 17 1026.6 - 0.0
20/02:45pm 15.6 11.5 8.5 62 3.6 S 20 32 11 17 1026.5 - 0.0
20/02:30pm 15.7 11.6 8.5 62 3.7 S 20 32 11 17 1026.4 - 0.0
20/02:15pm 15.7 12.6 8.7 63 3.6 SSE 15 26 8 14 1026.4 - 0.0
20/02:00pm 15.5 11.9 8.4 62 3.6 S 17 28 9 15 1026.5 - 0.0
20/01:45pm 15.9 11.8 8.5 61 3.8 S 20 30 11 16 1026.5 - 0.0
20/01:30pm 15.8 11.6 8.3 61 3.8 SSE 20 33 11 18 1026.5 - 0.0
20/01:15pm 15.8 11.7 8.5 62 3.7 SSE 20 32 11 17 1026.6 - 0.0
20/01:00pm 15.5 11.4 8.6 63 3.5 SSE 20 35 11 19 1026.8 - 0.0
20/12:45pm 15.8 12.0 9.1 64 3.5 S 19 28 10 15 1026.8 - 0.0
20/12:30pm 15.3 12.3 9.1 66 3.2 S 15 24 8 13 1027.0 - 0.0
20/12:15pm 15.4 12.8 9.3 67 3.2 S 13 26 7 14 1027.2 - 0.0
20/12:00pm 14.7 12.0 8.9 68 3.0 S 13 22 7 12 1027.4 - 0.0
20/11:45am 14.7 11.6 8.8 68 3.0 S 15 20 8 11 1027.6 - 0.0
20/11:30am 14.9 11.8 8.9 67 3.1 S 15 22 8 12 1027.7 - 0.0
20/11:15am 14.9 12.6 9.0 68 3.0 S 11 19 6 10 1027.9 - 0.0
20/11:00am 14.9 11.8 8.9 67 3.1 S 15 24 8 13 1027.9 - 0.0
20/10:45am 14.9 11.8 9.0 68 3.0 SSE 15 24 8 13 1028.0 - 0.0
20/10:30am 15.0 12.0 9.4 69 2.9 SSE 15 22 8 12 1028.1 - 0.0
20/10:15am 14.4 11.9 9.8 74 2.4 S 13 20 7 11 1028.1 - 0.0
20/10:00am 13.1 11.3 9.4 78 1.9 SW 9 19 5 10 1028.1 - 0.0
20/09:45am 12.8 11.0 9.3 79 1.8 SW 9 17 5 9 1028.1 - 0.0
20/09:30am 12.3 10.0 9.1 81 1.6 S 11 17 6 9 1027.9 - 0.0
20/09:15am 11.7 9.7 8.6 81 1.5 SW 9 13 5 7 1028.0 - 0.0
20/09:00am 11.5 9.5 8.5 82 1.5 SSW 9 11 5 6 1027.8 - 22.4
20/08:45am 10.9 8.4 8.0 82 1.4 SW 11 13 6 7 1027.7 - 22.4
20/08:30am 11.6 9.1 8.4 81 1.6 SSW 11 17 6 9 1027.7 - 22.4
20/08:15am 11.4 8.6 8.4 82 1.5 S 13 22 7 12 1027.6 - 22.4
20/08:00am 11.1 7.9 8.3 83 1.4 S 15 22 8 12 1027.7 - 22.4
20/07:45am 11.0 8.5 8.4 84 1.3 SSW 11 19 6 10 1027.7 - 22.4
20/07:30am 10.9 8.1 8.4 84 1.2 S 13 19 7 10 1027.8 - 22.4
20/07:15am 10.8 7.9 8.2 84 1.3 S 13 24 7 13 1027.5 - 22.4
20/07:00am 10.9 7.6 8.1 83 1.4 S 15 22 8 12 1027.2 - 22.4
20/06:45am 11.0 8.1 8.1 82 1.4 S 13 22 7 12 1027.2 - 22.4
20/06:30am 11.0 7.3 8.1 82 1.4 S 17 28 9 15 1027.0 - 22.4
20/06:15am 11.2 7.0 8.1 81 1.5 SSE 20 32 11 17 1026.9 - 22.4
20/06:00am 11.1 6.5 8.2 82 1.4 SSE 22 35 12 19 1026.8 - 22.4
20/05:45am 11.1 6.9 8.1 82 1.5 SSE 20 33 11 18 1026.8 - 22.4
20/05:30am 10.9 6.7 8.1 83 1.4 SSE 20 30 11 16 1026.9 - 22.4
20/05:15am 10.7 6.5 8.1 84 1.3 S 20 32 11 17 1026.9 - 22.4
20/05:00am 10.7 6.7 8.1 84 1.3 S 19 28 10 15 1027.0 - 22.4
20/04:45am 10.7 6.7 8.2 84 1.2 S 19 32 10 17 1027.0 - 22.4
20/04:30am 10.9 6.8 8.7 86 1.1 S 20 33 11 18 1026.8 - 22.4
20/04:15am 11.0 7.9 8.9 87 1.0 S 15 24 8 13 1026.8 - 22.4
20/04:00am 11.1 7.1 9.1 87 1.0 S 20 30 11 16 1026.7 - 22.4
20/03:45am 11.0 6.7 9.2 89 0.9 S 22 35 12 19 1026.3 - 22.4
20/03:30am 10.9 7.2 9.3 90 0.8 S 19 32 10 17 1026.3 - 22.4
20/03:15am 10.8 7.4 9.3 90 0.8 SSW 17 26 9 14 1026.3 - 22.4
20/03:00am 10.7 6.4 9.3 91 0.7 SW 22 30 12 16 1026.1 - 22.4
20/02:45am 10.6 5.9 9.1 90 0.8 SW 24 30 13 16 1026.2 - 22.4
20/02:30am 10.7 6.4 9.2 90 0.8 SW 22 30 12 16 1026.2 - 21.3
20/02:15am 11.2 8.3 9.6 90 0.8 WSW 15 24 8 13 1026.1 - 19.8
20/02:00am 11.3 7.7 9.8 90 0.8 SW 19 26 10 14 1025.9 - 19.0
20/01:45am 11.3 7.7 9.7 90 0.8 SSW 19 26 10 14 1025.8 - 19.0
20/01:30am 11.4 7.6 9.8 90 0.8 S 20 30 11 16 1025.5 - 18.1
20/01:15am 11.5 8.3 9.9 90 0.8 S 17 24 9 13 1025.4 - 18.1
20/01:00am 11.6 8.4 9.9 89 0.9 S 17 32 9 17 1025.3 - 17.7
20/12:45am 11.5 8.7 9.9 90 0.8 S 15 30 8 16 1025.1 - 17.3
20/12:30am 11.6 8.4 9.8 89 0.9 S 17 28 9 15 1025.2 - 16.9
20/12:15am 11.5 7.8 9.6 88 1.0 S 19 35 10 19 1025.1 - 16.3
20/12:00am 11.5 7.8 9.6 88 1.0 S 19 32 10 17 1025.0 - 16.3
 
Date/Time
EST
Temp
°C
App
Temp
°C
Dew
Point
°C
Rel
Hum
%
Delta-T
°C
Wind Press
QNH
hPa
Press
MSL
hPa
Rain since
9am
mm
Dir  Spd
km/h
Gust
km/h
Spd
kts
Gust
kts
19/11:45pm 11.5 7.2 9.5 87 1.0 S 22 37 12 20 1025.0 - 16.3
19/11:30pm 11.5 7.6 9.4 87 1.1 S 20 37 11 20 1025.1 - 15.6
19/11:15pm 11.4 7.5 9.3 87 1.1 S 20 32 11 17 1025.1 - 15.6
19/11:00pm 11.4 7.6 9.2 86 1.1 S 19 30 10 16 1025.0 - 15.6
19/10:45pm 11.3 6.9 9.0 86 1.2 S 22 35 12 19 1024.9 - 15.6
19/10:30pm 11.3 7.3 9.1 86 1.1 S 20 35 11 19 1025.2 - 15.6
19/10:15pm 11.3 7.0 9.2 87 1.1 S 22 39 12 21 1025.1 - 15.6
19/10:00pm 11.4 7.1 9.3 87 1.1 S 22 35 12 19 1025.1 - 15.6
19/09:45pm 11.5 6.9 9.5 87 1.0 S 24 43 13 23 1025.3 - 15.6
19/09:30pm 11.3 6.7 9.6 89 0.9 S 24 37 13 20 1025.2 - 15.6
19/09:15pm 11.2 7.9 9.5 89 0.9 S 17 26 9 14 1025.3 - 15.6
19/09:00pm 11.2 6.6 9.6 90 0.8 S 24 46 13 25 1025.3 - 15.4
19/08:45pm 11.0 6.7 9.4 90 0.8 S 22 39 12 21 1025.1 - 15.0
19/08:30pm 11.0 8.0 9.4 90 0.8 S 15 24 8 13 1025.4 - 13.7
19/08:15pm 10.9 7.1 9.2 89 0.9 S 19 28 10 15 1025.6 - 13.7
19/08:00pm 10.9 7.8 9.0 88 0.9 S 15 24 8 13 1025.6 - 10.6
19/07:45pm 10.9 7.8 9.0 88 0.9 S 15 26 8 14 1025.4 - 9.7
19/07:30pm 11.1 7.7 9.2 88 1.0 S 17 28 9 15 1025.5 - 9.5
19/07:15pm 11.1 7.1 9.1 87 1.0 S 20 30 11 16 1025.4 - 9.1
19/07:00pm 11.3 6.5 8.9 85 1.2 S 24 37 13 20 1025.0 - 7.0
19/06:45pm 11.3 5.7 8.8 84 1.2 S 28 43 15 23 1024.5 - 6.3
19/06:30pm 11.6 5.6 8.6 82 1.5 S 30 48 16 26 1024.2 - 6.3
19/06:15pm 11.9 7.4 8.4 79 1.7 S 22 35 12 19 1023.9 - 5.9
19/06:00pm 11.9 7.0 8.3 78 1.8 S 24 37 13 20 1023.4 - 5.9
19/05:45pm 12.2 6.9 8.4 77 1.9 S 26 41 14 22 1023.4 - 5.9
19/05:30pm 12.3 6.6 8.3 76 2.0 S 28 43 15 23 1023.2 - 5.9
19/05:15pm 12.3 7.7 8.1 75 2.1 S 22 41 12 22 1023.1 - 5.9
19/05:00pm 12.5 7.5 8.2 75 2.1 S 24 37 13 20 1022.7 - 5.9
19/04:45pm 12.7 7.3 8.2 74 2.2 S 26 43 14 23 1022.5 - 5.9
19/04:30pm 13.0 7.7 8.3 73 2.3 S 26 41 14 22 1022.6 - 5.9
19/04:15pm 13.4 7.3 8.4 72 2.5 S 30 43 16 23 1022.5 - 5.9
19/04:00pm 13.8 8.5 8.5 70 2.7 S 26 43 14 23 1022.4 - 5.9
19/03:45pm 13.8 7.7 8.4 70 2.7 S 30 54 16 29 1022.3 - 5.9
19/03:30pm 13.9 8.3 8.6 70 2.7 S 28 50 15 27 1022.2 - 5.9
19/03:15pm 14.1 8.5 8.7 70 2.7 S 28 46 15 25 1022.1 - 5.9
19/03:00pm 13.8 8.2 8.9 72 2.5 S 28 48 15 26 1022.0 - 5.9
19/02:45pm 13.4 7.9 9.1 75 2.2 S 28 46 15 25 1021.9 - 5.9
19/02:30pm 12.6 8.3 9.4 81 1.6 SSW 22 39 12 21 1022.0 - 5.9
19/02:15pm 11.5 7.4 8.8 83 1.4 SSW 20 30 11 16 1022.1 - 5.9
19/02:00pm 11.0 6.5 8.6 85 1.2 S 22 35 12 19 1022.0 - 5.9
19/01:45pm 10.7 5.9 8.7 87 1.0 S 24 37 13 20 1022.1 - 5.9
19/01:30pm 10.3 5.0 8.4 88 0.9 S 26 41 14 22 1022.3 - 5.7
19/01:15pm 9.9 4.4 7.7 86 1.1 SSE 26 44 14 24 1022.6 - 5.3
19/01:00pm 11.3 6.5 8.7 84 1.3 SSE 24 43 13 23 1022.5 - 3.0
19/12:45pm 11.4 6.1 8.5 82 1.4 S 26 39 14 21 1022.0 - 1.3
19/12:30pm 11.1 5.3 8.1 82 1.5 S 28 46 15 25 1022.0 - 1.1
19/12:15pm 11.2 4.7 8.0 81 1.6 S 32 50 17 27 1022.2 - 1.1
19/12:00pm 12.0 4.6 8.2 77 1.9 S 37 57 20 31 1022.4 - 0.9
19/11:45am 12.4 5.8 8.7 78 1.9 S 33 50 18 27 1022.5 - 0.9
19/11:30am 11.9 6.4 9.1 83 1.4 S 28 65 15 35 1022.4 - 0.9
19/11:15am 11.9 8.4 8.8 81 1.6 SSE 17 37 9 20 1022.5 - 0.9
19/11:00am 13.6 7.3 8.9 73 2.4 S 32 52 17 28 1022.2 - 0.2
19/10:45am 13.8 6.9 8.9 72 2.5 S 35 61 19 33 1021.9 - 0.0
19/10:30am 13.2 6.9 8.8 74 2.2 S 32 52 17 28 1022.2 - 0.0
19/10:15am 12.6 7.1 9.0 79 1.8 S 28 48 15 26 1022.2 - 0.0
19/10:00am 12.0 6.0 8.5 79 1.7 S 30 56 16 30 1022.1 - 0.0
19/09:45am 11.9 4.9 8.3 78 1.8 S 35 57 19 31 1022.0 - 0.0
19/09:30am 11.7 6.0 8.2 79 1.7 S 28 50 15 27 1022.0 - 0.0
19/09:15am 11.6 4.5 8.2 79 1.7 S 35 56 19 30 1021.7 - 0.0
19/09:00am 11.4 4.3 8.1 80 1.6 S 35 52 19 28 1021.4 - 5.5
19/08:45am 11.0 5.2 7.9 81 1.5 S 28 52 15 28 1021.1 - 5.5
19/08:30am 10.8 4.6 7.8 82 1.5 S 30 50 16 27 1020.8 - 5.5
19/08:15am 10.5 4.7 7.8 83 1.3 S 28 52 15 28 1020.6 - 5.5
19/08:00am 10.5 4.3 7.9 84 1.3 S 30 46 16 25 1020.8 - 5.5
19/07:45am 10.3 4.1 8.0 86 1.1 S 30 52 16 28 1020.9 - 5.5
19/07:30am 10.0 3.8 7.9 87 1.0 S 30 48 16 26 1020.8 - 5.5
19/07:15am 9.8 4.7 7.7 87 1.0 S 24 43 13 23 1020.6 - 5.3
19/07:00am 9.8 3.9 7.7 87 1.0 SSW 28 48 15 26 1020.3 - 4.9
19/06:45am 9.8 3.9 7.6 86 1.1 SSW 28 43 15 23 1020.0 - 4.6
19/06:30am 9.8 3.9 7.6 86 1.1 SSW 28 50 15 27 1020.0 - 4.4
19/06:15am 9.2 4.0 7.3 88 0.9 SSW 24 41 13 22 1019.9 - 4.2
19/06:00am 8.6 3.7 6.7 88 0.9 SSW 22 32 12 17 1019.7 - 4.2
19/05:45am 8.5 3.9 6.5 87 0.9 SW 20 32 11 17 1019.6 - 3.6
19/05:30am 8.8 4.3 6.8 87 0.9 SSW 20 30 11 16 1019.4 - 3.6
19/05:15am 8.7 3.8 6.8 88 0.9 SSW 22 35 12 19 1019.4 - 3.4
19/05:00am 8.2 3.6 6.3 88 0.9 SSW 20 32 11 17 1019.4 - 3.0
19/04:45am 8.1 3.4 6.0 87 1.0 SW 20 33 11 18 1019.3 - 2.7
19/04:30am 8.1 3.4 5.9 86 1.0 SW 20 30 11 16 1019.4 - 1.9
19/04:15am 8.5 3.9 5.8 83 1.2 SSW 19 32 10 17 1019.5 - 1.0
19/04:00am 8.9 3.7 5.6 80 1.5 SSW 22 32 12 17 1019.5 - 0.4
19/03:45am 9.5 3.5 5.2 74 2.0 SSW 26 44 14 24 1019.4 - 0.4
19/03:30am 9.7 3.6 4.8 71 2.2 SSW 26 44 14 24 1019.3 - 0.4
19/03:15am 9.7 3.6 4.6 70 2.3 SSW 26 41 14 22 1019.2 - 0.4
19/03:00am 9.7 3.2 4.5 70 2.3 SSW 28 50 15 27 1019.1 - 0.4
19/02:45am 9.8 2.5 4.4 69 2.4 S 32 52 17 28 1019.3 - 0.4
19/02:30am 9.8 2.8 4.3 68 2.5 SSW 30 50 16 27 1019.3 - 0.4
19/02:15am 9.8 3.2 4.2 68 2.5 S 28 46 15 25 1019.3 - 0.4
19/02:00am 9.5 3.9 3.7 67 2.5 SSW 22 33 12 18 1019.2 - 0.4
19/01:45am 9.2 3.6 3.3 66 2.6 SW 22 33 12 18 1019.1 - 0.4
19/01:30am 9.3 4.0 3.1 65 2.7 SW 20 32 11 17 1019.2 - 0.4
19/01:15am 9.6 2.8 3.3 65 2.7 SSW 28 44 15 24 1019.4 - 0.4
19/01:00am 9.2 3.9 3.2 66 2.6 SSW 20 37 11 20 1019.6 - 0.4
19/12:45am 9.1 4.0 2.9 65 2.7 SSW 19 30 10 16 1019.6 - 0.4
19/12:30am 9.3 3.3 3.1 65 2.7 SSW 24 37 13 20 1019.5 - 0.4
19/12:15am 9.2 2.8 3.0 65 2.7 SW 26 41 14 22 1019.6 - 0.4
19/12:00am 9.2 3.6 3.3 66 2.6 SW 22 33 12 18 1019.8 - 0.4
 
Date/Time
EST
Temp
°C
App
Temp
°C
Dew
Point
°C
Rel
Hum
%
Delta-T
°C
Wind Press
QNH
hPa
Press
MSL
hPa
Rain since
9am
mm
Dir  Spd
km/h
Gust
km/h
Spd
kts
Gust
kts
18/11:45pm 9.0 3.7 3.2 67 2.5 SW 20 30 11 16 1019.8 - 0.4
18/11:30pm 9.1 3.5 3.6 68 2.4 SW 22 26 12 14 1019.9 - 0.4
18/11:15pm 9.2 4.3 3.9 69 2.3 SW 19 24 10 13 1020.1 - 0.4
18/11:00pm 9.4 4.9 4.1 69 2.3 SW 17 20 9 11 1020.1 - 0.4
18/10:45pm 9.8 5.3 4.2 68 2.5 SW 17 24 9 13 1020.1 - 0.4
18/10:30pm 10.2 5.3 4.0 65 2.8 SW 19 24 10 13 1020.3 - 0.4
18/10:15pm 10.2 5.6 3.6 63 2.9 SW 17 26 9 14 1020.4 - 0.4
18/10:00pm 10.3 6.0 3.4 62 3.0 SW 15 22 8 12 1020.4 - 0.4
18/09:45pm 10.5 5.8 3.4 61 3.1 SW 17 30 9 16 1020.2 - 0.4
18/09:30pm 10.4 5.4 3.8 63 2.9 SSW 19 26 10 14 1019.9 - 0.4
18/09:15pm 10.6 5.5 4.0 63 2.9 SSW 20 24 11 13 1020.0 - 0.4
18/09:00pm 10.9 5.8 4.2 63 3.0 SW 20 24 11 13 1020.0 - 0.4
18/08:45pm 11.0 6.5 4.2 63 3.1 SW 17 24 9 13 1019.9 - 0.4
18/08:30pm 11.5 7.3 4.0 60 3.4 SSW 15 32 8 17 1019.8 - 0.4
18/08:15pm 11.6 6.5 4.2 60 3.3 SSW 20 30 11 16 1019.8 - 0.4
18/08:00pm 11.6 6.2 4.5 61 3.2 SSW 22 33 12 18 1019.7 - 0.4
18/07:45pm 11.7 6.7 4.8 62 3.2 S 20 37 11 20 1019.7 - 0.4
18/07:30pm 11.7 7.0 5.1 64 3.0 SSW 19 35 10 19 1019.7 - 0.4
18/07:15pm 11.6 6.4 5.3 65 2.9 SSW 22 37 12 20 1019.5 - 0.4
18/07:00pm 11.6 7.4 5.5 66 2.8 S 17 30 9 16 1019.4 - 0.4
18/06:45pm 11.8 7.0 5.6 66 2.9 S 20 33 11 18 1019.4 - 0.4
18/06:30pm 12.0 7.2 5.6 65 3.0 S 20 32 11 17 1019.2 - 0.4
18/06:15pm 12.1 6.9 5.3 63 3.2 S 22 33 12 18 1019.0 - 0.4
18/06:00pm 12.2 7.4 4.9 61 3.4 S 19 41 10 22 1018.8 - 0.4
18/05:45pm 12.3 8.2 4.6 59 3.5 S 15 26 8 14 1018.6 - 0.4
18/05:30pm 12.6 8.9 4.4 57 3.8 S 13 19 7 10 1018.4 - 0.4
18/05:15pm 13.0 9.3 4.3 55 4.0 S 13 22 7 12 1018.1 - 0.4
18/05:00pm 13.3 9.2 4.4 55 4.1 S 15 22 8 12 1017.9 - 0.4
18/04:45pm 13.7 9.2 4.4 53 4.3 S 17 28 9 15 1017.7 - 0.4
18/04:30pm 14.1 9.1 4.4 52 4.5 S 20 35 11 19 1017.4 - 0.4
18/04:15pm 14.7 9.7 4.6 50 4.7 S 20 35 11 19 1017.3 - 0.4
18/04:00pm 14.9 9.2 4.7 50 4.8 S 24 39 13 21 1017.1 - 0.4
18/03:45pm 14.9 8.4 4.7 50 4.8 S 28 48 15 26 1017.0 - 0.4
18/03:30pm 14.9 8.4 4.7 50 4.8 S 28 46 15 25 1017.0 - 0.4
18/03:15pm 15.3 10.1 5.3 51 4.8 SSW 22 37 12 20 1016.8 - 0.4
18/03:00pm 14.9 10.1 5.4 53 4.5 S 20 37 11 20 1016.7 - 0.4
18/02:45pm 14.8 8.7 4.9 51 4.7 SSW 26 43 14 23 1016.5 - 0.4
18/02:30pm 15.4 9.0 5.2 50 4.9 S 28 44 15 24 1016.4 - 0.4
18/02:15pm 15.6 9.6 5.5 51 4.9 SSW 26 39 14 21 1016.2 - 0.4
18/02:00pm 15.1 8.7 5.3 52 4.7 S 28 43 15 23 1016.1 - 0.4
18/01:45pm 15.3 8.5 5.3 51 4.8 SSW 30 46 16 25 1016.1 - 0.4
18/01:30pm 15.5 8.8 5.7 52 4.7 SSW 30 48 16 26 1016.2 - 0.4
18/01:15pm 14.9 9.4 6.0 55 4.3 S 24 39 13 21 1016.2 - 0.4
18/01:00pm 14.7 8.8 5.9 55 4.2 SSW 26 41 14 22 1016.2 - 0.4
18/12:45pm 14.7 9.6 6.0 56 4.2 SSW 22 41 12 22 1016.3 - 0.4
18/12:30pm 14.2 8.4 6.3 59 3.8 SSW 26 48 14 26 1016.2 - 0.4
18/12:15pm 13.5 9.5 6.6 63 3.3 SSW 17 30 9 16 1016.5 - 0.4
18/12:00pm 12.9 8.4 6.2 64 3.2 SSW 19 33 10 18 1016.5 - 0.4
18/11:45am 12.8 6.9 6.0 63 3.2 SSW 26 43 14 23 1016.5 - 0.4
18/11:30am 12.5 6.7 6.2 65 3.0 SSW 26 41 14 22 1016.5 - 0.4
18/11:15am 11.9 6.5 6.5 69 2.6 SSW 24 41 13 22 1016.4 - 0.4
18/11:00am 11.3 5.9 6.3 71 2.4 SSW 24 41 13 22 1016.2 - 0.4
18/10:45am 11.2 5.4 6.2 71 2.4 SSW 26 43 14 23 1016.1 - 0.4
18/10:30am 10.9 4.7 6.3 73 2.2 SSW 28 43 15 23 1015.8 - 0.4
18/10:15am 10.3 2.4 6.1 75 2.0 SSW 37 57 20 31 1015.1 - 0.4
18/10:00am 10.3 2.4 6.1 75 2.0 SW 37 67 20 36 1015.2 - 0.4
18/09:45am 9.8 1.9 6.2 78 1.7 SW 37 52 20 28 1015.4 - 0.4
18/09:30am 9.8 2.2 6.0 77 1.8 SSW 35 52 19 28 1015.5 - 0.4
18/09:15am 10.0 3.3 5.4 73 2.1 SSW 30 44 16 24 1015.8 - 0.0
18/09:00am 9.6 2.8 5.3 74 2.0 SW 30 44 16 24 1015.7 - 0.4
18/08:45am 9.3 2.9 5.3 76 1.8 SW 28 41 15 22 1015.5 - 0.4
18/08:30am 8.9 2.6 5.5 79 1.5 SW 28 37 15 20 1015.3 - 0.4
18/08:15am 8.6 3.0 5.5 81 1.4 SW 24 35 13 19 1015.1 - 0.4
18/08:00am 8.4 2.8 5.4 81 1.4 SW 24 35 13 19 1014.9 - 0.4
18/07:45am 8.7 2.6 4.9 77 1.7 SSW 26 37 14 20 1014.9 - 0.2
18/07:30am 8.9 2.8 4.8 75 1.8 SW 26 39 14 21 1014.7 - 0.0
18/07:15am 8.6 2.5 4.9 77 1.7 SW 26 39 14 21 1014.6 - 0.0
18/07:00am 8.6 1.7 4.7 76 1.7 SW 30 43 16 23 1014.2 - 0.0
18/06:45am 9.1 1.7 4.2 71 2.2 SW 32 48 17 26 1014.0 - 0.0
18/06:30am 9.2 3.0 4.1 70 2.3 SW 26 43 14 23 1013.9 - 0.0
18/06:15am 8.9 3.1 4.2 72 2.1 SW 24 39 13 21 1013.8 - 0.0
18/06:00am 8.9 3.0 4.1 72 2.1 SW 24 37 13 20 1013.6 - 0.0
18/05:45am 8.8 3.0 4.2 73 2.0 SW 24 35 13 19 1013.4 - 0.0
18/05:30am 8.6 3.2 4.3 74 1.9 SW 22 32 12 17 1013.4 - 0.0
18/05:15am 8.3 2.5 4.4 76 1.7 SW 24 32 13 17 1013.4 - 0.0
18/05:00am 8.4 2.6 4.2 75 1.8 SW 24 35 13 19 1013.4 - 0.0
18/04:45am 8.7 2.8 3.9 72 2.1 SW 24 32 13 17 1013.3 - 0.0
18/04:30am 8.8 3.3 3.8 71 2.2 SW 22 35 12 19 1013.3 - 0.0
18/04:15am 8.8 2.8 3.5 69 2.3 SW 24 32 13 17 1013.3 - 0.0
18/04:00am 9.0 3.0 3.5 68 2.4 SW 24 33 13 18 1013.2 - 0.0
18/03:45am 9.0 2.7 3.5 68 2.4 SW 26 44 14 24 1013.0 - 0.0
18/03:30am 9.0 3.4 3.4 68 2.4 SW 22 32 12 17 1013.0 - 0.0
18/03:15am 9.1 2.7 3.4 67 2.5 SW 26 37 14 20 1013.0 - 0.0
18/03:00am 9.2 2.8 3.4 67 2.5 SW 26 39 14 21 1012.9 - 0.0
18/02:45am 9.2 3.2 3.4 67 2.5 SW 24 37 13 20 1013.0 - 0.0
18/02:30am 9.4 3.4 3.3 65 2.7 SW 24 43 13 23 1013.1 - 0.0
18/02:15am 9.6 3.2 3.3 65 2.7 SW 26 39 14 21 1013.1 - 0.0
18/02:00am 9.8 3.8 3.5 65 2.8 SW 24 37 13 20 1013.1 - 0.0
18/01:45am 9.8 4.2 3.6 65 2.7 SW 22 35 12 19 1013.2 - 0.0
18/01:30am 9.7 4.1 3.5 65 2.7 SW 22 37 12 20 1013.1 - 0.0
18/01:15am 9.5 4.3 3.5 66 2.6 SW 20 28 11 15 1013.1 - 0.0
18/01:00am 9.2 4.1 3.3 66 2.6 SW 19 26 10 14 1013.0 - 0.0
18/12:45am 9.1 4.0 3.2 66 2.6 WSW 19 24 10 13 1012.9 - 0.0
18/12:30am 8.5 3.4 2.8 67 2.4 WSW 19 26 10 14 1012.9 - 0.0
18/12:15am 7.9 3.4 2.2 67 2.4 SW 15 20 8 11 1012.8 - 0.0
18/12:00am 8.0 3.1 2.2 67 2.4 WSW 17 22 9 12 1012.7 - 0.0
 
Date/Time
EST
Temp
°C
App
Temp
°C
Dew
Point
°C
Rel
Hum
%
Delta-T
°C
Wind Press
QNH
hPa
Press
MSL
hPa
Rain since
9am
mm
Dir  Spd
km/h
Gust
km/h
Spd
kts
Gust
kts
17/11:45pm 7.9 2.6 2.0 66 2.5 SW 19 22 10 12 1012.7 - 0.0
17/11:30pm 8.1 3.2 1.9 65 2.6 WSW 17 22 9 12 1012.7 - 0.0
17/11:15pm 8.6 4.1 2.0 63 2.8 WSW 15 19 8 10 1012.7 - 0.0
17/11:00pm 8.9 4.8 2.3 63 2.8 W 13 19 7 10 1012.8 - 0.0
17/10:45pm 9.2 4.3 2.1 61 3.0 W 17 22 9 12 1012.7 - 0.0
17/10:30pm 9.3 3.8 1.9 60 3.1 W 20 26 11 14 1012.7 - 0.0
17/10:15pm 9.3 3.8 2.0 60 3.1 W 20 28 11 15 1012.8 - 0.0
17/10:00pm 9.3 3.8 1.7 59 3.2 W 20 28 11 15 1012.7 - 0.0
17/09:45pm 9.2 3.7 1.7 59 3.1 W 20 28 11 15 1012.7 - 0.0
17/09:30pm 9.3 4.4 1.7 59 3.2 W 17 22 9 12 1012.6 - 0.0
17/09:15pm 9.4 3.9 1.7 58 3.2 W 20 26 11 14 1012.6 - 0.0
17/09:00pm 9.5 4.0 1.7 58 3.3 W 20 26 11 14 1012.7 - 0.0
17/08:45pm 9.6 4.3 1.9 58 3.2 W 19 28 10 15 1012.6 - 0.0
17/08:30pm 9.8 4.3 2.0 58 3.3 W 20 30 11 16 1012.5 - 0.0
17/08:15pm 9.9 3.3 1.8 57 3.4 W 26 35 14 19 1012.3 - 0.0
17/08:00pm 10.1 3.9 1.9 57 3.5 W 24 35 13 19 1012.5 - 0.0
17/07:45pm 10.3 4.4 1.9 56 3.6 W 22 33 12 18 1012.7 - 0.0
17/07:30pm 10.3 4.0 1.8 55 3.6 W 24 37 13 20 1012.5 - 0.0
17/07:15pm 10.4 3.7 1.6 54 3.7 W 26 37 14 20 1012.3 - 0.0
17/07:00pm 10.4 3.7 1.4 53 3.8 W 26 35 14 19 1012.2 - 0.0
17/06:45pm 10.6 3.5 1.4 53 3.9 W 28 43 15 23 1012.1 - 0.0
17/06:30pm 10.8 3.3 1.3 52 4.0 W 30 48 16 26 1011.9 - 0.0
17/06:15pm 10.9 3.8 1.5 52 4.0 W 28 41 15 22 1011.8 - 0.0
17/06:00pm 11.0 3.9 1.4 51 4.1 W 28 39 15 21 1011.7 - 0.0
17/05:45pm 10.8 5.2 1.4 52 4.0 W 20 35 11 19 1011.4 - 0.0
17/05:30pm 10.9 5.3 1.2 51 4.1 W 20 32 11 17 1011.3 - 0.0
17/05:15pm 11.0 4.2 1.1 50 4.2 WSW 26 39 14 21 1011.1 - 0.0
17/05:00pm 11.3 4.9 0.8 48 4.4 WSW 24 37 13 20 1011.1 - 0.0
17/04:45pm 11.7 4.5 0.8 47 4.6 WSW 28 39 15 21 1010.9 - 0.0
17/04:30pm 12.0 4.8 0.8 46 4.7 W 28 43 15 23 1010.8 - 0.0
17/04:15pm 12.3 4.3 0.3 43 5.0 WSW 32 46 17 25 1010.7 - 0.0
17/04:00pm 12.5 3.5 0.1 42 5.2 WSW 37 56 20 30 1010.5 - 0.0
17/03:45pm 12.8 3.4 0.2 42 5.3 W 39 59 21 32 1010.4 - 0.0

Other Formats:

Comma delimited format used in spreadsheet applications
http://www.bom.gov.au/fwo/IDN60801/IDN60801.95757.axf

JavaScript Object Notation format (JSON) in row-major order
http://www.bom.gov.au/fwo/IDN60801/IDN60801.95757.json